Time;durP1;ratioP1;P1;durP2;ratioP2;P2;SDS_P1;SDS_P2;PMS_P1;PMS_P2;Temp;Humidity;BMP_temperature;BMP_pressure;BME280_temperature;BME280_humidity;BME280_pressure;Samples;Min_cycle;Max_cycle;Signal;HPM_P1;HPM_P2
2021/08/22 00:00:47;;;;;;;6.10;5.50;;;23.10;35.50;;;;;;10443483;28;20240;-76
2021/08/22 00:05:51;;;;;;;5.87;5.37;;;23.10;35.50;;;;;;10440733;28;20224;-76
2021/08/22 00:10:55;;;;;;;5.23;4.83;;;23.00;35.30;;;;;;10442746;28;20352;-76
2021/08/22 00:15:59;;;;;;;5.37;4.87;;;22.90;35.80;;;;;;10441397;28;20233;-74
2021/08/22 00:21:03;;;;;;;5.07;4.67;;;22.80;35.50;;;;;;10442808;28;20775;-76
2021/08/22 00:26:07;;;;;;;5.70;5.20;;;22.80;35.50;;;;;;10442485;28;20235;-76
2021/08/22 00:31:10;;;;;;;5.63;5.07;;;22.80;36.10;;;;;;10441352;28;20228;-76
2021/08/22 00:36:13;;;;;;;5.20;4.70;;;22.80;35.80;;;;;;10441850;28;20233;-76
2021/08/22 00:41:18;;;;;;;5.20;4.80;;;22.70;35.80;;;;;;10442564;28;20232;-76
2021/08/22 00:46:21;;;;;;;4.97;4.60;;;22.60;36.10;;;;;;10441813;28;20717;-76
2021/08/22 00:51:25;;;;;;;5.20;4.80;;;22.60;36.00;;;;;;10440924;28;20606;-76
2021/08/22 00:56:31;;;;;;;4.90;4.50;;;22.60;36.10;;;;;;10442683;28;20225;-76
2021/08/22 01:01:36;;;;;;;5.30;4.80;;;22.50;36.70;;;;;;10441896;28;20307;-76
2021/08/22 01:06:46;;;;;;;6.03;5.17;;;22.60;36.50;;;;;;10439004;28;20225;-76
2021/08/22 01:11:54;;;;;;;5.53;4.93;;;22.50;37.10;;;;;;10439673;28;20233;-76
2021/08/22 01:17:01;;;;;;;6.50;5.93;;;22.50;36.90;;;;;;10439704;28;20783;-76
2021/08/22 01:22:07;;;;;;;6.00;5.50;;;22.50;37.30;;;;;;10439965;28;20244;-76
2021/08/22 01:27:13;;;;;;;5.83;5.43;;;22.40;37.00;;;;;;10441311;28;20225;-76
2021/08/22 01:32:16;;;;;;;6.30;5.80;;;22.40;37.30;;;;;;10437894;28;20720;-76
2021/08/22 01:37:21;;;;;;;6.00;5.40;;;22.40;36.90;;;;;;10441893;28;20233;-76
2021/08/22 01:42:25;;;;;;;6.17;5.57;;;22.30;37.30;;;;;;10439843;28;20713;-76
2021/08/22 01:47:29;;;;;;;6.07;5.67;;;22.30;37.30;;;;;;10439947;28;20228;-76
2021/08/22 01:52:34;;;;;;;5.97;5.47;;;22.20;37.20;;;;;;10439159;28;20286;-76
2021/08/22 01:57:38;;;;;;;6.13;5.63;;;22.10;38.40;;;;;;10439504;28;20225;-76
2021/08/22 02:02:48;;;;;;;5.13;4.73;;;22.00;38.10;;;;;;10439560;28;20232;-76
2021/08/22 02:07:54;;;;;;;5.70;5.20;;;22.00;38.30;;;;;;10436049;28;20248;-76
2021/08/22 02:13:01;;;;;;;5.47;4.97;;;22.00;38.30;;;;;;10439365;28;20224;-76
2021/08/22 02:18:09;;;;;;;6.90;6.30;;;22.00;38.30;;;;;;10439638;28;20243;-76
2021/08/22 02:23:14;;;;;;;7.23;6.60;;;22.00;38.30;;;;;;10440391;28;20232;-76
2021/08/22 02:28:17;;;;;;;6.40;5.80;;;22.00;38.30;;;;;;10437663;28;20584;-76
2021/08/22 02:33:21;;;;;;;7.07;6.47;;;21.90;38.20;;;;;;10437079;28;20229;-76
2021/08/22 02:38:26;;;;;;;6.20;5.30;;;21.90;38.20;;;;;;10439479;28;20233;-76
2021/08/22 02:43:29;;;;;;;6.67;6.07;;;21.80;38.10;;;;;;10436393;28;20330;-76
2021/08/22 02:48:32;;;;;;;7.43;6.73;;;21.80;38.10;;;;;;10437433;28;20959;-76
2021/08/22 02:53:36;;;;;;;6.63;6.07;;;21.80;38.10;;;;;;10440946;28;20225;-76
2021/08/22 02:58:40;;;;;;;8.33;7.63;;;21.70;38.90;;;;;;10439755;28;20233;-76
2021/08/22 03:03:43;;;;;;;7.87;7.07;;;21.60;39.00;;;;;;10445024;28;20590;-76
2021/08/22 03:08:47;;;;;;;8.47;7.77;;;21.60;39.30;;;;;;10446635;28;20259;-76
2021/08/22 03:13:51;;;;;;;8.07;7.27;;;21.60;40.30;;;;;;10444600;28;20225;-76
2021/08/22 03:18:54;;;;;;;8.03;7.33;;;21.70;39.80;;;;;;10443293;28;20315;-76
2021/08/22 03:23:58;;;;;;;7.40;6.70;;;21.70;39.70;;;;;;10443722;28;20221;-76
2021/08/22 03:29:02;;;;;;;7.57;6.87;;;21.70;40.00;;;;;;10443709;28;20232;-76
2021/08/22 03:34:05;;;;;;;6.70;6.10;;;21.70;39.50;;;;;;10444030;28;20229;-76
2021/08/22 03:39:09;;;;;;;5.63;5.23;;;21.80;39.50;;;;;;10445447;28;20221;-76
2021/08/22 03:44:12;;;;;;;5.07;4.67;;;21.80;39.80;;;;;;10445431;28;20264;-76
2021/08/22 03:49:16;;;;;;;5.03;4.63;;;21.80;39.20;;;;;;10442476;28;20233;-76
2021/08/22 03:54:20;;;;;;;4.93;4.53;;;21.90;39.00;;;;;;10445319;28;20704;-76
2021/08/22 03:59:23;;;;;;;4.40;4.00;;;21.90;39.20;;;;;;10442089;28;20448;-76
2021/08/22 04:04:26;;;;;;;4.37;3.97;;;21.90;38.70;;;;;;10442716;28;20239;-76
2021/08/22 04:09:31;;;;;;;3.97;3.67;;;21.90;38.60;;;;;;10443865;28;20232;-76
2021/08/22 04:14:34;;;;;;;3.83;3.53;;;22.00;39.00;;;;;;10441745;28;20237;-76
2021/08/22 04:19:38;;;;;;;4.03;3.70;;;22.00;38.70;;;;;;10442660;28;20249;-76
2021/08/22 04:24:43;;;;;;;3.77;3.50;;;22.00;38.80;;;;;;10444392;28;20241;-76
2021/08/22 04:29:46;;;;;;;6.17;4.00;;;22.00;40.10;;;;;;10440570;28;20229;-76
2021/08/22 04:34:49;;;;;;;3.63;3.33;;;21.90;39.20;;;;;;10441445;28;20229;-76
2021/08/22 04:39:55;;;;;;;3.90;3.60;;;21.80;39.30;;;;;;10442145;28;20221;-76
2021/08/22 04:44:59;;;;;;;3.73;3.43;;;21.70;40.00;;;;;;10441063;28;20229;-76
2021/08/22 04:50:02;;;;;;;4.00;3.57;;;21.60;40.00;;;;;;10438374;28;20227;-76
2021/08/22 04:55:08;;;;;;;3.53;3.33;;;21.50;40.10;;;;;;10443596;28;20241;-76
2021/08/22 05:00:13;;;;;;;4.10;3.80;;;21.50;41.10;;;;;;10442392;28;20221;-76
2021/08/22 05:05:16;;;;;;;3.93;3.37;;;21.50;40.60;;;;;;10440168;28;20221;-76
2021/08/22 05:10:21;;;;;;;4.30;3.87;;;21.50;40.30;;;;;;10442827;28;20221;-76
2021/08/22 05:15:24;;;;;;;4.03;3.73;;;21.50;41.20;;;;;;10439806;28;20225;-76
2021/08/22 05:20:27;;;;;;;4.20;3.83;;;21.50;40.80;;;;;;10442232;28;20221;-76
2021/08/22 05:25:32;;;;;;;4.07;3.77;;;21.50;41.10;;;;;;10440031;28;20229;-76
2021/08/22 05:30:35;;;;;;;3.90;3.60;;;21.50;41.50;;;;;;10440870;28;20857;-76
2021/08/22 05:35:39;;;;;;;4.97;3.60;;;21.50;41.20;;;;;;10436554;28;20735;-75
2021/08/22 05:40:44;;;;;;;4.10;3.73;;;21.40;41.10;;;;;;10441413;28;20236;-76
2021/08/22 05:45:47;;;;;;;4.37;3.97;;;21.40;42.10;;;;;;10440089;28;20230;-76
2021/08/22 05:50:50;;;;;;;4.90;4.40;;;21.30;41.60;;;;;;10438326;28;20221;-76
2021/08/22 05:55:59;;;;;;;4.40;4.10;;;21.20;42.20;;;;;;10441439;28;20221;-76
2021/08/22 06:01:02;;;;;;;5.30;4.03;;;21.10;43.10;;;;;;10440052;28;20231;-76
2021/08/22 06:06:07;;;;;;;5.10;4.70;;;21.10;42.70;;;;;;10436138;28;20229;-76
2021/08/22 06:11:11;;;;;;;5.30;4.40;;;21.10;43.10;;;;;;10439331;28;20243;-76
2021/08/22 06:16:14;;;;;;;4.37;3.97;;;21.10;43.90;;;;;;10439653;28;20229;-76
2021/08/22 06:21:18;;;;;;;4.67;4.27;;;21.20;43.20;;;;;;10439514;28;20228;-76
2021/08/22 06:26:22;;;;;;;4.47;4.07;;;21.20;43.20;;;;;;10440213;28;20229;-76
2021/08/22 06:31:26;;;;;;;4.27;3.97;;;21.20;43.90;;;;;;10435962;28;20229;-76
2021/08/22 06:36:29;;;;;;;4.70;4.30;;;21.20;43.30;;;;;;10446956;28;20251;-76
2021/08/22 06:41:34;;;;;;;4.70;4.13;;;21.30;43.60;;;;;;10444832;28;20240;-76
2021/08/22 06:46:37;;;;;;;4.17;3.77;;;21.40;44.00;;;;;;10446930;28;20237;-76
2021/08/22 06:51:40;;;;;;;4.10;3.80;;;21.50;43.90;;;;;;10444508;28;20233;-76
2021/08/22 06:56:45;;;;;;;3.53;3.33;;;21.60;43.90;;;;;;10444247;28;20217;-76
2021/08/22 07:01:49;;;;;;;3.80;3.40;;;21.80;44.40;;;;;;10446817;28;20225;-76
2021/08/22 07:06:52;;;;;;;3.57;3.37;;;21.90;44.00;;;;;;10443953;28;20308;-76
2021/08/22 07:11:57;;;;;;;3.40;3.20;;;22.00;43.70;;;;;;10445336;28;20724;-76
2021/08/22 07:17:00;;;;;;;4.10;3.80;;;22.20;43.90;;;;;;10446014;28;20221;-76
2021/08/22 07:22:03;;;;;;;4.40;4.00;;;22.30;43.70;;;;;;10446897;28;20237;-76
2021/08/22 07:27:07;;;;;;;4.90;4.50;;;22.40;43.90;;;;;;10443382;28;20228;-76
2021/08/22 07:32:11;;;;;;;5.13;4.73;;;22.50;44.50;;;;;;10443837;28;20239;-76
2021/08/22 07:37:15;;;;;;;5.53;5.10;;;22.60;44.30;;;;;;10444628;28;20225;-76
2021/08/22 07:42:19;;;;;;;5.67;5.27;;;22.80;44.00;;;;;;10444302;28;20228;-76
2021/08/22 07:47:22;;;;;;;5.83;5.33;;;22.90;44.30;;;;;;10444155;28;20251;-76
2021/08/22 07:52:30;;;;;;;5.47;5.07;;;23.00;44.30;;;;;;10441933;28;20257;-76
2021/08/22 07:57:36;;;;;;;5.87;5.37;;;23.20;43.80;;;;;;10445111;28;20229;-76
2021/08/22 08:02:39;;;;;;;5.47;4.97;;;23.30;44.00;;;;;;10442257;28;20232;-76
2021/08/22 08:07:43;;;;;;;5.50;4.73;;;23.50;43.40;;;;;;10443113;28;20229;-76
2021/08/22 08:12:49;;;;;;;4.73;4.33;;;23.60;43.60;;;;;;10442214;28;20225;-76
2021/08/22 08:17:53;;;;;;;5.00;4.60;;;23.70;43.60;;;;;;10444470;28;20229;-76
2021/08/22 08:22:56;;;;;;;5.60;5.10;;;23.90;43.20;;;;;;10442035;28;20225;-76
2021/08/22 08:28:01;;;;;;;5.23;4.53;;;24.10;43.40;;;;;;10444430;28;20227;-76
2021/08/22 08:33:04;;;;;;;4.50;4.20;;;24.20;42.70;;;;;;10438696;28;20233;-76
2021/08/22 08:38:07;;;;;;;4.60;4.20;;;24.30;42.60;;;;;;10443993;28;20754;-76
2021/08/22 08:43:12;;;;;;;4.83;4.43;;;24.40;42.30;;;;;;10441717;28;20240;-76
2021/08/22 08:48:19;;;;;;;4.27;3.97;;;24.50;42.10;;;;;;10443380;28;20315;-76
2021/08/22 08:53:23;;;;;;;4.77;4.37;;;24.50;41.70;;;;;;10439282;28;20244;-76
2021/08/22 08:58:27;;;;;;;4.83;4.13;;;24.60;41.70;;;;;;10441139;28;20232;-76
2021/08/22 09:03:30;;;;;;;4.60;4.20;;;24.60;41.20;;;;;;10439947;28;20240;-76
2021/08/22 09:09:21;;;;;;;4.30;3.80;;;24.70;41.50;;;;;;10441819;28;20251;-76
2021/08/22 09:15:13;;;;;;;5.13;3.60;;;24.80;40.70;;;;;;10427882;28;20235;-76
2021/08/22 09:20:59;;;;;;;3.97;3.67;;;24.90;41.30;;;;;;10441697;28;20225;-76
2021/08/22 09:26:39;;;;;;;3.83;3.53;;;24.90;40.80;;;;;;10441493;28;20224;-76
2021/08/22 09:32:19;;;;;;;4.00;3.70;;;25.00;40.90;;;;;;10438974;28;20240;-76
2021/08/22 09:37:59;;;;;;;3.93;3.63;;;25.10;41.00;;;;;;10439889;28;20231;-76
2021/08/22 09:43:36;;;;;;;4.20;3.57;;;25.10;41.00;;;;;;10438545;28;20232;-74
2021/08/22 09:49:31;;;;;;;3.73;3.43;;;25.20;41.00;;;;;;10439915;28;20225;-74
2021/08/22 09:55:09;;;;;;;3.80;3.50;;;25.40;41.00;;;;;;10438517;28;20236;-74
2021/08/22 10:00:43;;;;;;;3.23;3.03;;;25.50;41.10;;;;;;10438162;28;20689;-76
2021/08/22 10:06:13;;;;;;;3.70;3.40;;;25.60;41.00;;;;;;10437709;28;20252;-76
2021/08/22 10:11:17;;;;;;;3.90;3.60;;;25.80;39.70;;;;;;10447548;28;20233;-76
2021/08/22 10:16:23;;;;;;;4.33;4.03;;;25.80;39.60;;;;;;10447165;28;20224;-76
2021/08/22 10:21:27;;;;;;;5.07;3.77;;;25.90;39.90;;;;;;10449042;28;20307;-76
2021/08/22 10:26:50;;;;;;;4.10;3.80;;;25.80;39.00;;;;;;10446220;28;20228;-76
2021/08/22 10:32:11;;;;;;;4.10;3.80;;;25.80;39.20;;;;;;10446685;28;20968;-76
2021/08/22 10:37:29;;;;;;;4.27;3.97;;;25.70;39.10;;;;;;10446707;28;20225;-76
2021/08/22 10:42:32;;;;;;;3.97;3.67;;;25.80;38.80;;;;;;10446236;28;20224;-76
2021/08/22 10:47:46;;;;;;;4.80;4.40;;;25.90;39.30;;;;;;10446332;28;20738;-76
2021/08/22 10:52:50;;;;;;;4.23;3.93;;;25.90;38.40;;;;;;10447306;28;20236;-76
2021/08/22 10:57:57;;;;;;;4.43;4.03;;;25.90;38.60;;;;;;10443811;28;20236;-76
2021/08/22 11:03:03;;;;;;;3.90;3.60;;;25.90;38.70;;;;;;10447304;28;20232;-74
2021/08/22 11:08:14;;;;;;;4.47;4.00;;;25.90;38.60;;;;;;10445164;28;20290;-74
2021/08/22 11:13:18;;;;;;;4.17;3.83;;;25.90;38.10;;;;;;10444316;28;20232;-74
2021/08/22 11:18:23;;;;;;;4.27;3.97;;;26.00;38.20;;;;;;10445430;28;20235;-74
2021/08/22 11:23:26;;;;;;;4.20;3.90;;;26.00;38.20;;;;;;10445013;28;20274;-74
2021/08/22 11:28:29;;;;;;;3.70;3.40;;;26.00;38.30;;;;;;10445983;28;20234;-74
2021/08/22 11:33:33;;;;;;;4.40;4.10;;;26.10;38.20;;;;;;10443591;28;20712;-74
2021/08/22 11:38:37;;;;;;;4.40;4.00;;;26.10;38.10;;;;;;10446070;28;20248;-74
2021/08/22 11:43:53;;;;;;;4.20;3.90;;;26.10;38.30;;;;;;10442288;28;20248;-74
2021/08/22 11:48:58;;;;;;;4.10;3.70;;;26.20;38.50;;;;;;10443083;28;20231;-74
2021/08/22 11:54:02;;;;;;;4.10;3.80;;;26.20;38.40;;;;;;10443556;28;20279;-74
2021/08/22 11:59:05;;;;;;;4.40;4.10;;;26.40;38.00;;;;;;10444682;28;20233;-74
2021/08/22 12:04:19;;;;;;;4.03;3.73;;;26.40;37.70;;;;;;10438580;28;20229;-74
2021/08/22 12:09:22;;;;;;;4.17;3.87;;;26.60;37.00;;;;;;10443677;28;20243;-74
2021/08/22 12:14:32;;;;;;;4.63;4.23;;;26.70;37.30;;;;;;10439822;28;20315;-74
2021/08/22 12:19:37;;;;;;;4.37;4.07;;;26.70;37.30;;;;;;10444273;28;20224;-74
2021/08/22 12:24:45;;;;;;;3.80;3.50;;;26.80;37.20;;;;;;10440679;28;20229;-74
2021/08/22 12:29:48;;;;;;;3.80;3.50;;;26.90;36.70;;;;;;10443556;28;20249;-74
2021/08/22 12:35:04;;;;;;;4.20;3.90;;;26.80;37.00;;;;;;10440113;28;20235;-74
2021/08/22 12:40:09;;;;;;;4.30;4.00;;;26.80;36.90;;;;;;10442471;28;20228;-74
2021/08/22 12:45:12;;;;;;;4.13;3.83;;;26.80;37.20;;;;;;10440130;28;20233;-74
2021/08/22 12:50:17;;;;;;;4.20;3.90;;;26.80;38.10;;;;;;10442723;28;20221;-74
2021/08/22 12:55:20;;;;;;;4.27;3.97;;;26.90;36.60;;;;;;10440049;28;20225;-74
2021/08/22 13:00:23;;;;;;;3.73;3.47;;;26.90;36.90;;;;;;10437600;28;20220;-74
2021/08/22 13:05:28;;;;;;;3.93;3.63;;;26.90;36.50;;;;;;10439329;28;20248;-73
2021/08/22 13:10:31;;;;;;;3.70;3.40;;;26.90;36.70;;;;;;10442303;28;20225;-74
2021/08/22 13:15:34;;;;;;;4.30;3.93;;;26.90;36.60;;;;;;10438944;28;20253;-74
2021/08/22 13:20:41;;;;;;;4.40;4.00;;;26.80;36.30;;;;;;10441376;28;20221;-74
2021/08/22 13:25:45;;;;;;;3.70;3.40;;;26.80;36.70;;;;;;10440238;28;20690;-74
2021/08/22 13:30:48;;;;;;;3.83;3.43;;;26.70;36.50;;;;;;10438147;28;20620;-74
2021/08/22 13:35:53;;;;;;;4.30;4.00;;;26.70;36.50;;;;;;10439202;28;20713;-74
2021/08/22 13:40:56;;;;;;;4.57;4.17;;;26.60;36.30;;;;;;10441596;28;20892;-74
2021/08/22 13:45:59;;;;;;;4.83;4.00;;;26.30;36.70;;;;;;10442163;28;20238;-74
2021/08/22 13:51:04;;;;;;;2.90;2.70;;;25.90;37.10;;;;;;10438397;28;20228;-74
2021/08/22 13:56:08;;;;;;;3.47;3.17;;;25.40;37.00;;;;;;10441314;28;20257;-74
2021/08/22 14:01:11;;;;;;;3.63;3.33;;;25.10;38.00;;;;;;10440745;28;20237;-76
2021/08/22 14:06:16;;;;;;;3.30;3.10;;;24.80;38.30;;;;;;10440316;28;20291;-76
2021/08/22 14:11:21;;;;;;;3.50;3.30;;;24.60;39.00;;;;;;10440201;28;20238;-76
2021/08/22 14:16:24;;;;;;;3.37;3.17;;;24.50;39.10;;;;;;10440086;28;20610;-76
2021/08/22 14:21:31;;;;;;;3.47;3.13;;;24.30;39.30;;;;;;10440827;28;20225;-76
2021/08/22 14:26:34;;;;;;;3.40;3.10;;;24.30;40.30;;;;;;10440543;28;20240;-74
2021/08/22 14:31:37;;;;;;;3.80;3.50;;;24.20;39.40;;;;;;10438791;28;20237;-76
2021/08/22 14:36:42;;;;;;;3.53;3.10;;;24.20;40.20;;;;;;10439115;28;20239;-76
2021/08/22 14:41:45;;;;;;;3.70;3.40;;;24.10;40.10;;;;;;10437796;28;20236;-76
2021/08/22 14:46:48;;;;;;;3.43;3.13;;;24.10;40.10;;;;;;10440324;28;20224;-76
2021/08/22 14:51:53;;;;;;;3.40;3.10;;;24.10;40.10;;;;;;10438612;28;20221;-76
2021/08/22 14:56:56;;;;;;;3.30;3.00;;;24.00;40.00;;;;;;10445908;28;20240;-76
2021/08/22 15:02:00;;;;;;;3.60;3.30;;;24.00;40.00;;;;;;10447534;28;20229;-76
2021/08/22 15:07:05;;;;;;;3.93;3.63;;;24.10;40.10;;;;;;10446001;28;20231;-76
2021/08/22 15:12:09;;;;;;;3.83;3.47;;;24.10;40.20;;;;;;10444475;28;20800;-76
2021/08/22 15:17:13;;;;;;;3.97;3.67;;;24.10;40.10;;;;;;10445073;28;20240;-76
2021/08/22 15:22:17;;;;;;;3.97;3.67;;;24.10;40.10;;;;;;10446245;28;20233;-76
2021/08/22 15:27:21;;;;;;;4.50;3.63;;;24.10;40.50;;;;;;10442281;28;20217;-76
2021/08/22 15:32:25;;;;;;;4.30;3.90;;;24.10;40.20;;;;;;10440323;28;20225;-76
2021/08/22 15:37:29;;;;;;;4.07;3.70;;;24.10;40.20;;;;;;10444632;28;20312;-76
2021/08/22 15:42:32;;;;;;;3.90;3.60;;;24.10;40.90;;;;;;10444599;28;20260;-76
2021/08/22 15:47:35;;;;;;;4.17;3.87;;;24.00;40.50;;;;;;10449618;28;20229;-76
2021/08/22 15:52:41;;;;;;;4.00;3.70;;;24.00;40.50;;;;;;10446023;28;20236;-76
2021/08/22 15:57:44;;;;;;;4.47;4.17;;;24.00;41.30;;;;;;10450563;28;20219;-76
2021/08/22 16:02:48;;;;;;;4.40;3.80;;;23.90;41.00;;;;;;10447547;28;20919;-76
2021/08/22 16:07:52;;;;;;;4.43;4.13;;;23.90;41.20;;;;;;10445943;28;20865;-76
2021/08/22 16:12:57;;;;;;;4.90;4.47;;;23.80;42.00;;;;;;10447199;28;20241;-76
2021/08/22 16:18:00;;;;;;;4.63;4.23;;;23.80;41.70;;;;;;10450964;28;20216;-76
2021/08/22 16:23:05;;;;;;;4.17;3.80;;;23.80;41.70;;;;;;10446888;28;20227;-76
2021/08/22 16:28:08;;;;;;;4.23;3.93;;;23.80;42.30;;;;;;10449303;28;20232;-76
2021/08/22 16:33:11;;;;;;;4.67;4.27;;;23.80;41.70;;;;;;10445624;28;20320;-76
2021/08/22 16:38:16;;;;;;;4.80;4.40;;;23.60;41.80;;;;;;10450126;28;20229;-76
2021/08/22 16:43:19;;;;;;;4.50;4.10;;;23.50;42.30;;;;;;10450071;28;20229;-76
2021/08/22 16:48:22;;;;;;;4.80;4.40;;;23.40;41.80;;;;;;10449724;28;20796;-75
2021/08/22 16:53:26;;;;;;;22.63;20.40;;;23.30;42.30;;;;;;10446898;28;20228;-75
2021/08/22 16:58:30;;;;;;;11.90;10.90;;;23.20;42.80;;;;;;10446339;28;20227;-75
2021/08/22 17:03:34;;;;;;;11.40;10.40;;;23.20;42.50;;;;;;10446331;28;20602;-76
2021/08/22 17:08:39;;;;;;;28.10;25.37;;;23.10;42.60;;;;;;10446223;28;20220;-75
2021/08/22 17:13:42;;;;;;;10.33;9.33;;;23.10;43.10;;;;;;10441903;28;20220;-75
2021/08/22 17:18:45;;;;;;;64.67;54.30;;;23.10;42.70;;;;;;10444063;28;20227;-76
2021/08/22 17:23:50;;;;;;;46.10;41.40;;;23.00;42.70;;;;;;10439426;28;20233;-76
2021/08/22 17:28:53;;;;;;;14.70;13.30;;;22.90;43.60;;;;;;10440989;28;20233;-75
2021/08/22 17:33:56;;;;;;;13.83;12.53;;;22.90;43.10;;;;;;10437140;28;20422;-76
2021/08/22 17:39:00;;;;;;;8.50;7.60;;;22.90;43.40;;;;;;10442218;28;20248;-75
2021/08/22 17:44:04;;;;;;;6.53;5.93;;;22.90;44.10;;;;;;10441417;28;20221;-75
2021/08/22 17:49:07;;;;;;;5.60;5.10;;;22.90;43.60;;;;;;10441517;28;20229;-76
2021/08/22 17:54:12;;;;;;;5.97;5.37;;;22.80;43.50;;;;;;10441915;28;20220;-75
2021/08/22 17:59:15;;;;;;;4.87;4.23;;;22.80;43.90;;;;;;10439025;28;20303;-76
2021/08/22 18:04:18;;;;;;;4.10;3.70;;;22.70;43.50;;;;;;10439500;28;20933;-75
2021/08/22 18:09:22;;;;;;;4.43;4.03;;;22.70;43.40;;;;;;10440959;28;20225;-76
2021/08/22 18:14:26;;;;;;;3.87;3.57;;;22.70;43.90;;;;;;10439838;28;20233;-76
2021/08/22 18:19:29;;;;;;;4.00;3.70;;;22.80;43.70;;;;;;10441302;28;20232;-75
2021/08/22 18:24:35;;;;;;;3.63;3.33;;;22.80;43.30;;;;;;10437956;28;20229;-76
2021/08/22 18:29:38;;;;;;;4.03;3.73;;;22.80;43.50;;;;;;10443152;28;20228;-76
2021/08/22 18:34:41;;;;;;;4.10;3.70;;;22.80;43.20;;;;;;10448697;28;20228;-76
2021/08/22 18:39:46;;;;;;;4.17;3.67;;;22.70;43.20;;;;;;10444116;28;20227;-76
2021/08/22 18:44:49;;;;;;;3.87;3.57;;;22.70;43.40;;;;;;10447536;28;20235;-77
2021/08/22 18:49:52;;;;;;;3.80;3.20;;;22.50;43.10;;;;;;10447459;28;20225;-77
2021/08/22 18:54:57;;;;;;;2.80;2.60;;;22.40;43.30;;;;;;10445280;28;20233;-76
2021/08/22 19:00:00;;;;;;;2.57;2.37;;;22.20;43.50;;;;;;10448233;28;20236;-76
2021/08/22 19:05:04;;;;;;;2.00;1.90;;;22.00;43.00;;;;;;10446651;28;20229;-76
2021/08/22 19:10:10;;;;;;;2.63;2.20;;;21.90;43.30;;;;;;10444701;28;20231;-76
2021/08/22 19:15:13;;;;;;;3.50;2.07;;;21.80;43.90;;;;;;10447850;28;20244;-76
2021/08/22 19:20:16;;;;;;;2.17;1.73;;;21.80;43.40;;;;;;10443802;28;20232;-75
2021/08/22 19:25:21;;;;;;;2.20;2.00;;;21.70;43.50;;;;;;10445433;28;20237;-76
2021/08/22 19:30:25;;;;;;;2.23;2.00;;;21.70;43.90;;;;;;10447072;28;20232;-76
2021/08/22 19:35:28;;;;;;;1.77;1.67;;;21.60;43.50;;;;;;10444352;28;20239;-76
2021/08/22 19:40:33;;;;;;;2.43;1.70;;;21.60;43.90;;;;;;10439075;28;20243;-76
2021/08/22 19:45:36;;;;;;;1.77;1.67;;;21.50;44.10;;;;;;10444897;28;20228;-75
2021/08/22 19:50:43;;;;;;;1.70;1.60;;;21.50;43.90;;;;;;10439953;28;20243;-76
2021/08/22 19:55:47;;;;;;;2.97;1.40;;;21.50;43.60;;;;;;10440786;28;20247;-75
2021/08/22 20:00:51;;;;;;;1.67;1.57;;;21.40;43.80;;;;;;10444263;28;20224;-76
2021/08/22 20:05:54;;;;;;;1.63;1.53;;;21.30;43.30;;;;;;10444913;28;20217;-76
2021/08/22 20:10:59;;;;;;;1.90;1.73;;;21.30;43.10;;;;;;10440446;28;20255;-76
2021/08/22 20:16:03;;;;;;;1.40;1.30;;;21.30;43.00;;;;;;10444648;28;20233;-76
2021/08/22 20:21:06;;;;;;;1.87;1.57;;;21.20;42.70;;;;;;10445080;28;20221;-76
2021/08/22 20:26:11;;;;;;;1.50;1.40;;;21.10;42.60;;;;;;10440685;28;20237;-76
2021/08/22 20:31:15;;;;;;;1.40;1.30;;;20.90;42.80;;;;;;10443281;28;20760;-76
2021/08/22 20:42:42;;;;;;;1.17;1.10;;;20.70;43.10;;;;;;10429534;28;20653;-76
2021/08/22 20:47:46;;;;;;;1.60;1.40;;;20.70;42.90;;;;;;10443518;28;20438;-75
2021/08/22 20:52:49;;;;;;;1.43;1.27;;;20.60;42.70;;;;;;10435342;28;20236;-75
2021/08/22 20:57:54;;;;;;;1.77;1.50;;;20.50;42.60;;;;;;10442620;28;20583;-75
2021/08/22 21:02:58;;;;;;;1.40;1.30;;;20.40;42.80;;;;;;10441069;28;20228;-76
2021/08/22 21:08:01;;;;;;;1.27;1.17;;;20.30;42.60;;;;;;10439559;28;20236;-76
2021/08/22 21:13:06;;;;;;;2.03;1.50;;;20.20;42.80;;;;;;10441793;28;20350;-76
2021/08/22 21:18:09;;;;;;;1.23;1.13;;;20.10;43.30;;;;;;10438878;28;20225;-75
2021/08/22 21:23:13;;;;;;;1.30;1.20;;;19.80;42.70;;;;;;10441583;28;20243;-76
2021/08/22 21:28:17;;;;;;;2.17;1.30;;;19.90;43.10;;;;;;10441787;28;20235;-75
2021/08/22 21:33:21;;;;;;;1.50;1.40;;;19.70;43.50;;;;;;10439790;28;20236;-76
2021/08/22 21:38:24;;;;;;;3.23;1.50;;;19.70;43.60;;;;;;10438759;28;20240;-75
2021/08/22 21:43:30;;;;;;;1.50;1.40;;;19.70;43.60;;;;;;10439823;28;20709;-76
2021/08/22 21:48:33;;;;;;;2.57;1.37;;;19.70;43.70;;;;;;10439777;28;20224;-76
2021/08/22 21:53:37;;;;;;;2.60;1.60;;;19.70;43.70;;;;;;10438404;28;20247;-75
2021/08/22 21:58:41;;;;;;;2.00;1.30;;;19.70;43.50;;;;;;10439081;28;20228;-76
2021/08/22 22:03:44;;;;;;;3.07;1.30;;;19.70;44.10;;;;;;10436750;28;20225;-76
2021/08/22 22:08:48;;;;;;;1.30;1.20;;;19.70;44.10;;;;;;10440805;28;20220;-76
2021/08/22 22:13:52;;;;;;;3.13;1.30;;;19.70;43.90;;;;;;10437335;28;20234;-75
2021/08/22 22:18:55;;;;;;;1.40;1.30;;;19.80;44.20;;;;;;10439864;28;20236;-76
2021/08/22 22:23:59;;;;;;;1.30;1.20;;;19.80;43.70;;;;;;10440200;28;20608;-75
2021/08/22 22:29:04;;;;;;;1.60;1.30;;;19.70;43.50;;;;;;10437550;28;20285;-76
2021/08/22 22:34:07;;;;;;;2.40;1.30;;;19.60;43.70;;;;;;10435682;28;20233;-75
2021/08/22 22:39:10;;;;;;;2.40;1.33;;;19.40;43.50;;;;;;10439045;28;20233;-75
2021/08/22 22:44:14;;;;;;;2.17;1.30;;;19.30;43.70;;;;;;10432399;28;20243;-75
2021/08/22 22:49:17;;;;;;;1.93;1.60;;;19.20;44.30;;;;;;10432379;28;20792;-75
2021/08/22 22:54:21;;;;;;;1.60;1.50;;;19.20;44.20;;;;;;10437996;28;20228;-75
2021/08/22 22:59:25;;;;;;;1.37;1.20;;;19.20;44.30;;;;;;10439149;28;20685;-75
2021/08/22 23:04:29;;;;;;;1.63;1.37;;;19.20;44.70;;;;;;10435339;28;20255;-75
2021/08/22 23:09:32;;;;;;;1.27;1.23;;;19.20;44.30;;;;;;10437666;28;20695;-75
2021/08/22 23:14:36;;;;;;;2.10;1.43;;;19.20;44.20;;;;;;10436457;28;20255;-75
2021/08/22 23:19:39;;;;;;;1.80;1.40;;;19.10;44.20;;;;;;10445919;28;20931;-75
2021/08/22 23:24:43;;;;;;;2.30;1.60;;;19.10;44.00;;;;;;10442948;28;20235;-75
2021/08/22 23:29:47;;;;;;;3.30;1.80;;;18.90;44.20;;;;;;10445357;28;20229;-75
2021/08/22 23:34:51;;;;;;;2.23;1.53;;;18.90;44.60;;;;;;10443580;28;20237;-75
2021/08/22 23:39:54;;;;;;;1.73;1.60;;;18.70;44.40;;;;;;10445941;28;20701;-75
2021/08/22 23:44:58;;;;;;;1.70;1.60;;;18.70;44.70;;;;;;10443388;28;20312;-75
2021/08/22 23:50:02;;;;;;;1.70;1.60;;;18.60;45.20;;;;;;10444733;28;20249;-75
2021/08/22 23:55:06;;;;;;;3.43;1.60;;;18.50;45.10;;;;;;10444577;28;20235;-75
